Terminal Aerodrome Forecast
Issued by NWS

Home | Current Version | Previous Version | Text Only | Print | Product List | Glossary On
Versions: 1 2 3 4 5 6 7 8 9 10 11 12 13 14 15 16 17 18 19 20 21 22 23 24 25 26 27 28 29 30 31 32
000
FTUS41 KOKX 012000 AAB
TAFTEB
TAF AMD
KTEB 012025Z 0120/0218 18008KT P6SM BKN050 BKN080
     FM020100 VRB04KT P6SM FEW025 SCT050 BKN150
     FM020500 VRB03KT 4SM BR SCT020 SCT050 BKN150
     FM021400 23005KT P6SM FEW020 SCT050=

USA.gov is the U.S. government's official web portal to all federal, state and local government web resources and services.